Temp: 8.1°C   Baro: 1033.1mb
  Wind: 9.0mph   Dir: ENE (63°)
  Rain: 0.0mm (0.0mm/hr)
  Solar: 652W/m2  Hum: 69%
 
Bath Spa Weather Historical Data
Daily Summary for February 28, 2020 Units:  Metric    English   Both
Next Day »
Daily Weekly Monthly Yearly Custom
  High: Low: Average:
Temperature: -10.9 °C -27.7 °C -11.8 °C
Dew Point: -11.8 °C -27.7 °C -12.6 °C
Humidity: 94% % 90%
Wind Speed: 51.5km/h 0km/h 22km/h
Wind Gust: 77.7km/h - -
Wind direction- - SW
Pressure: 33866.8 hPa 0 hPa -
Precipitation: 109.22 mm    
Historical Graphs
 
 
Tabular Data for February 28, 2020
Time Temperature Dew Point Pressure Wind direction Wind Speed Wind Gust Humidity Rainfall Rate (Hourly) solar
06:40 -27.7 °C -27.7 °C 0 hPa Calm   -2586.8 km/h % 0 mm W/m2
07:02 -27.7 °C -27.7 °C 0 hPa Calm   -2586.8 km/h % 0 mm W/m2
07:07 -13 °C -13.6 °C 33866.8 hPa South 10.3 km/h 18.2 km/h 93% 25.4 mm meteobridge W/m2
07:10 -12.9 °C -13.6 °C 33866.8 hPa South 7.6 km/h 12.9 km/h 93% 25.4 mm meteobridge W/m2
07:16 -12.8 °C -13.4 °C 33856.6 hPa South 26.2 km/h 23.3 km/h 93% 25.4 mm meteobridge W/m2
07:21 -12.7 °C -13.3 °C 33856.6 hPa South 17.9 km/h 25.9 km/h 93% 20.32 mm meteobridge W/m2
07:25 -12.7 °C -13.2 °C 33856.6 hPa SSW 15.6 km/h 33.6 km/h 94% 20.32 mm meteobridge W/m2
07:30 -12.6 °C -13.2 °C 33843.1 hPa South 10.3 km/h 20.8 km/h 93% 20.32 mm meteobridge W/m2
07:35 -12.4 °C -12.9 °C 33843.1 hPa South 10.3 km/h 20.8 km/h 94% 12.7 mm meteobridge W/m2
07:40 -12.2 °C -12.7 °C 33843.1 hPa SW 7.6 km/h 23.3 km/h 94% 12.7 mm meteobridge W/m2
07:45 -12 °C -12.5 °C 33832.9 hPa SW 10.3 km/h 23.3 km/h 94% 12.7 mm meteobridge W/m2
07:50 -11.8 °C -12.3 °C 33832.9 hPa West 23 km/h 33.6 km/h 94% 12.7 mm meteobridge W/m2
07:55 -11.6 °C -12.1 °C 33832.9 hPa West 17.9 km/h 41.4 km/h 94% 7.62 mm meteobridge W/m2
08:00 -11.5 °C -12 °C 33822.8 hPa SW 23 km/h 28.5 km/h 94% 7.62 mm meteobridge W/m2
08:05 -11.4 °C -11.9 °C 33822.8 hPa West 23 km/h 41.4 km/h 94% 7.62 mm meteobridge W/m2
08:10 -11.4 °C -12 °C 33822.8 hPa West 20.9 km/h 33.6 km/h 93% 7.62 mm meteobridge W/m2
08:15 -11.3 °C -11.9 °C 33809.2 hPa WSW 20.9 km/h 31.1 km/h 93% 7.62 mm meteobridge W/m2
08:20 -11.3 °C -11.9 °C 33809.2 hPa SW 15.6 km/h 33.6 km/h 93% 7.62 mm meteobridge W/m2
08:25 -11.3 °C -11.9 °C 33809.2 hPa WSW 33.6 km/h 33.6 km/h 93% 7.62 mm meteobridge W/m2
08:30 -11.3 °C -11.9 °C 33809.2 hPa SSW 17.9 km/h 28.5 km/h 93% 7.62 mm meteobridge W/m2
08:35 -11.2 °C -11.8 °C 33809.2 hPa SW 17.9 km/h 28.5 km/h 93% 7.62 mm meteobridge W/m2
08:40 -11.2 °C -11.8 °C 33809.2 hPa West 26.2 km/h 36.2 km/h 93% 7.62 mm meteobridge W/m2
08:45 -11.2 °C -11.9 °C 33799.1 hPa WSW 20.9 km/h 28.5 km/h 92% 0 mm meteobridge W/m2
08:50 -11.2 °C -11.9 °C 33799.1 hPa WSW 7.6 km/h 25.9 km/h 92% 0 mm meteobridge W/m2
08:55 -11.2 °C -11.9 °C 33788.9 hPa SW 20.9 km/h 36.2 km/h 92% 0 mm meteobridge W/m2
09:00 -11.2 °C -11.9 °C 33788.9 hPa West 26.2 km/h 31.1 km/h 92% 0 mm meteobridge W/m2
09:05 -11.2 °C -11.9 °C 33788.9 hPa WSW 33.6 km/h 36.2 km/h 92% 0 mm meteobridge W/m2
09:10 -11.1 °C -11.8 °C 33799.1 hPa West 15.6 km/h 38.8 km/h 92% 0 mm meteobridge W/m2
09:15 -11.1 °C -11.8 °C 33799.1 hPa West 28.5 km/h 38.8 km/h 92% 0 mm meteobridge W/m2
09:20 -11.1 °C -11.8 °C 33788.9 hPa West 17.9 km/h 28.5 km/h 92% 0 mm meteobridge W/m2
09:25 -11.1 °C -11.8 °C 33799.1 hPa SW 17.9 km/h 38.8 km/h 92% 0 mm meteobridge W/m2
09:30 -11.1 °C -11.8 °C 33788.9 hPa West 12.7 km/h 38.8 km/h 92% 0 mm meteobridge W/m2
09:35 -11.1 °C -11.8 °C 33788.9 hPa West 23 km/h 31.1 km/h 92% 0 mm meteobridge W/m2
09:40 -11.2 °C -11.9 °C 33788.9 hPa SW 23 km/h 46.7 km/h 92% 0 mm meteobridge W/m2
09:45 -11.1 °C -11.8 °C 33799.1 hPa West 26.2 km/h 36.2 km/h 92% 0 mm meteobridge W/m2
09:50 -11.1 °C -11.8 °C 33788.9 hPa SW 33.6 km/h 44.1 km/h 92% 0 mm meteobridge W/m2
09:56 -11.1 °C -11.8 °C 33788.9 hPa WSW 26.2 km/h 46.7 km/h 92% 0 mm meteobridge W/m2
10:00 -11.1 °C -11.8 °C 33775.4 hPa WSW 23 km/h 31.1 km/h 92% 0 mm meteobridge W/m2
10:05 -11.1 °C -11.8 °C 33775.4 hPa SW 15.6 km/h 28.5 km/h 91% 0 mm meteobridge W/m2
10:10 -11.1 °C -11.9 °C 33775.4 hPa West 20.9 km/h 31.1 km/h 90% 0 mm meteobridge W/m2
10:15 -11 °C -11.9 °C 33765.2 hPa WSW 26.2 km/h 36.2 km/h 90% 0 mm meteobridge W/m2
10:20 -10.9 °C -11.9 °C 33765.2 hPa SW 26.2 km/h 36.2 km/h 89% 0 mm meteobridge W/m2
10:25 -10.9 °C -11.9 °C 33765.2 hPa SSW 23 km/h 28.5 km/h 89% 0 mm meteobridge W/m2
10:30 -10.9 °C -12 °C 33765.2 hPa SW 23 km/h 36.2 km/h 88% 0 mm meteobridge W/m2
10:35 -10.9 °C -12 °C 33765.2 hPa SW 17.9 km/h 38.8 km/h 88% 0 mm meteobridge W/m2
10:40 -10.9 °C -12 °C 33751.6 hPa SW 31.4 km/h 33.6 km/h 88% 0 mm meteobridge W/m2
10:45 -11 °C -12.1 °C 33741.5 hPa SW 5.1 km/h 36.2 km/h 88% 0 mm meteobridge W/m2
10:50 -11 °C -12.1 °C 33731.3 hPa WSW 17.9 km/h 23.3 km/h 88% 0 mm meteobridge W/m2
10:55 -11 °C -12.1 °C 33765.2 hPa SSW 23 km/h 31.1 km/h 88% 0 mm meteobridge W/m2
11:00 -11 °C -12.2 °C 33751.6 hPa SSW 20.9 km/h 36.2 km/h 87% 0 mm meteobridge W/m2
11:06 -11 °C -12.3 °C 33751.6 hPa SW 23 km/h 33.6 km/h 86% 0 mm meteobridge W/m2
11:10 -11 °C -12.3 °C 33751.6 hPa SSW 20.9 km/h 33.6 km/h 86% 0 mm meteobridge W/m2
11:15 -11 °C -12.4 °C 33741.5 hPa WSW 15.6 km/h 38.8 km/h 84% 0 mm meteobridge W/m2
11:20 -11 °C -12.4 °C 33741.5 hPa SW 20.9 km/h 33.6 km/h 84% 0 mm meteobridge W/m2
11:25 -11 °C -12.4 °C 33741.5 hPa SW 23 km/h 36.2 km/h 84% 0 mm meteobridge W/m2
11:30 -11.1 °C -12.5 °C 33741.5 hPa SW 15.6 km/h 23.3 km/h 84% 0 mm meteobridge W/m2
11:35 -11.2 °C -12.5 °C 33741.5 hPa WSW 26.2 km/h 31.1 km/h 85% 0 mm meteobridge W/m2
11:40 -11.2 °C -12.6 °C 33731.3 hPa West 28.5 km/h 31.1 km/h 85% 0 mm meteobridge W/m2
11:46 -11.3 °C -12.6 °C 33731.3 hPa WSW 26.2 km/h 31.1 km/h 86% 7.62 mm meteobridge W/m2
11:50 -11.3 °C -12.5 °C 33731.3 hPa SW 23 km/h 25.9 km/h 87% 12.7 mm meteobridge W/m2
11:55 -11.4 °C -12.5 °C 33731.3 hPa SW 7.6 km/h 23.3 km/h 88% 12.7 mm meteobridge W/m2
12:00 -11.4 °C -12.5 °C 33717.8 hPa SW 7.6 km/h 25.9 km/h 88% 12.7 mm meteobridge W/m2
12:05 -11.5 °C -12.4 °C 33717.8 hPa SW 12.7 km/h 33.6 km/h 89% 12.7 mm meteobridge W/m2
12:10 -11.5 °C -12.4 °C 33717.8 hPa SW 23 km/h 38.8 km/h 90% 20.32 mm meteobridge W/m2
12:15 -11.5 °C -12.4 °C 33717.8 hPa SSW 31.4 km/h 33.6 km/h 90% 20.32 mm meteobridge W/m2
12:20 -11.4 °C -12.3 °C 33717.8 hPa SSW 17.9 km/h 31.1 km/h 90% 20.32 mm meteobridge W/m2
12:25 -11.5 °C -12.4 °C 33717.8 hPa West 12.7 km/h 25.9 km/h 90% 20.32 mm meteobridge W/m2
12:30 -11.4 °C -12.3 °C 33707.6 hPa SSW 23 km/h 28.5 km/h 90% 20.32 mm meteobridge W/m2
12:35 -11.5 °C -12.4 °C 33707.6 hPa SSW 10.3 km/h 20.8 km/h 90% 20.32 mm meteobridge W/m2
12:40 -11.4 °C -12.2 °C 33707.6 hPa SW 12.7 km/h 31.1 km/h 91% 20.32 mm meteobridge W/m2
12:45 -11.4 °C -12.2 °C 33707.6 hPa SW 20.9 km/h 33.6 km/h 91% 12.7 mm meteobridge W/m2
12:50 -11.4 °C -12.2 °C 33707.6 hPa SSW 23 km/h 44.1 km/h 91% 12.7 mm meteobridge W/m2
12:55 -11.4 °C -12.2 °C 33707.6 hPa SW 28.5 km/h 38.8 km/h 91% 12.7 mm meteobridge W/m2
13:00 -11.4 °C -12.2 °C 33707.6 hPa SW 12.7 km/h 33.6 km/h 91% 7.62 mm meteobridge W/m2
13:05 -11.4 °C -12.2 °C 33694.1 hPa SW 20.9 km/h 23.3 km/h 91% 7.62 mm meteobridge W/m2
13:10 -11.4 °C -12.2 °C 33694.1 hPa WSW 28.5 km/h 36.2 km/h 91% 0 mm meteobridge W/m2
13:15 -11.4 °C -12.2 °C 33707.6 hPa SSW 23 km/h 25.9 km/h 91% 0 mm meteobridge W/m2
13:20 -11.4 °C -12.2 °C 33694.1 hPa South 17.9 km/h 28.5 km/h 91% 0 mm meteobridge W/m2
13:25 -11.4 °C -12.2 °C 33694.1 hPa WSW 15.6 km/h 33.6 km/h 91% 7.62 mm meteobridge W/m2
13:30 -11.4 °C -12.2 °C 33694.1 hPa SSW 26.2 km/h 36.2 km/h 91% 7.62 mm meteobridge W/m2
13:35 -11.4 °C -12.2 °C 33694.1 hPa WSW 33.6 km/h 46.7 km/h 91% 12.7 mm meteobridge W/m2
13:40 -11.4 °C -12.2 °C 33694.1 hPa West 15.6 km/h 31.1 km/h 91% 12.7 mm meteobridge W/m2
13:45 -11.4 °C -12.2 °C 33694.1 hPa SSW 12.7 km/h 31.1 km/h 92% 12.7 mm meteobridge W/m2
13:50 -11.5 °C -12.2 °C 33694.1 hPa SSE 26.2 km/h 38.8 km/h 92% 20.32 mm meteobridge W/m2
13:55 -11.5 °C -12.2 °C 33694.1 hPa South 31.4 km/h 44.1 km/h 92% 20.32 mm meteobridge W/m2
14:00 -11.4 °C -12.2 °C 33694.1 hPa WSW 15.6 km/h 49.2 km/h 92% 25.4 mm meteobridge W/m2
14:05 -11.5 °C -12.2 °C 33694.1 hPa WSW 26.2 km/h 25.9 km/h 92% 25.4 mm meteobridge W/m2
14:10 -11.4 °C -12.2 °C 33683.9 hPa SW 26.2 km/h 36.2 km/h 92% 25.4 mm meteobridge W/m2
14:15 -11.5 °C -12.2 °C 33683.9 hPa SW 17.9 km/h 28.5 km/h 92% 25.4 mm meteobridge W/m2
14:20 -11.5 °C -12.2 °C 33683.9 hPa SSW 12.7 km/h 31.1 km/h 92% 25.4 mm meteobridge W/m2
14:25 -11.5 °C -12.2 °C 33683.9 hPa SSW 10.3 km/h 33.6 km/h 92% 25.4 mm meteobridge W/m2
14:30 -11.5 °C -12.2 °C 33683.9 hPa SSW 17.9 km/h 31.1 km/h 92% 25.4 mm meteobridge W/m2
14:35 -11.6 °C -12.3 °C 33673.8 hPa WSW 17.9 km/h 31.1 km/h 92% 20.32 mm meteobridge W/m2
14:40 -11.6 °C -12.3 °C 33673.8 hPa SSW 15.6 km/h 31.1 km/h 92% 25.4 mm meteobridge W/m2
14:45 -11.6 °C -12.3 °C 33660.2 hPa WNW 31.4 km/h 44.1 km/h 92% 20.32 mm meteobridge W/m2
14:50 -11.6 °C -12.3 °C 33660.2 hPa SW 10.3 km/h 33.6 km/h 92% 12.7 mm meteobridge W/m2
14:55 -11.5 °C -12.2 °C 33660.2 hPa SW 23 km/h 38.8 km/h 92% 20.32 mm meteobridge W/m2
15:00 -11.5 °C -12.2 °C 33660.2 hPa SW 20.9 km/h 44.1 km/h 92% 12.7 mm meteobridge W/m2
15:05 -11.5 °C -12.2 °C 33660.2 hPa SSW 15.6 km/h 44.1 km/h 92% 12.7 mm meteobridge W/m2
15:10 -11.5 °C -12.2 °C 33660.2 hPa SSW 23 km/h 25.9 km/h 92% 12.7 mm meteobridge W/m2
15:15 -11.5 °C -12.2 °C 33660.2 hPa South 15.6 km/h 38.8 km/h 92% 12.7 mm meteobridge W/m2
15:21 -11.5 °C -12.2 °C 33660.2 hPa WSW 15.6 km/h 25.9 km/h 92% 12.7 mm meteobridge W/m2
15:25 -11.5 °C -12.2 °C 33650.1 hPa South 26.2 km/h 44.1 km/h 92% 12.7 mm meteobridge W/m2
15:30 -11.5 °C -12.2 °C 33650.1 hPa South 17.9 km/h 31.1 km/h 92% 12.7 mm meteobridge W/m2
15:35 -11.5 °C -12.3 °C 33650.1 hPa South 15.6 km/h 31.1 km/h 91% 12.7 mm meteobridge W/m2
15:40 -11.4 °C -12.2 °C 33650.1 hPa SW 17.9 km/h 44.1 km/h 91% 7.62 mm meteobridge W/m2
15:45 -11.5 °C -12.3 °C 33639.9 hPa SW 33.6 km/h 44.1 km/h 91% 7.62 mm meteobridge W/m2
15:50 -11.5 °C -12.3 °C 33639.9 hPa WNW 15.6 km/h 46.7 km/h 91% 7.62 mm meteobridge W/m2
15:55 -11.5 °C -12.3 °C 33639.9 hPa SSW 23 km/h 49.2 km/h 91% 0 mm meteobridge W/m2
16:00 -11.5 °C -12.3 °C 33639.9 hPa SSW 51.5 km/h 51.8 km/h 91% 0 mm meteobridge W/m2
16:05 -11.6 °C -12.3 °C 33639.9 hPa WSW 38.8 km/h 49.2 km/h 91% 0 mm meteobridge W/m2
16:10 -11.6 °C -12.3 °C 33639.9 hPa SW 38.8 km/h 46.7 km/h 91% 0 mm meteobridge W/m2
16:15 -11.6 °C -12.3 °C 33639.9 hPa SW 28.5 km/h 33.6 km/h 91% 0 mm meteobridge W/m2
16:20 -11.6 °C -12.4 °C 33626.4 hPa SSW 26.2 km/h 36.2 km/h 91% 0 mm meteobridge W/m2
16:25 -11.6 °C -12.3 °C 33626.4 hPa SSW 15.6 km/h 41.4 km/h 92% 0 mm meteobridge W/m2
16:30 -11.6 °C -12.3 °C 33626.4 hPa SSW 17.9 km/h 20.8 km/h 92% 0 mm meteobridge W/m2
16:35 -11.6 °C -12.3 °C 33616.2 hPa SSE 33.6 km/h 33.6 km/h 92% 0 mm meteobridge W/m2
16:40 -11.6 °C -12.4 °C 33616.2 hPa SW 15.6 km/h 44.1 km/h 91% 0 mm meteobridge W/m2
16:45 -11.6 °C -12.4 °C 33616.2 hPa SW 20.9 km/h 25.9 km/h 91% 0 mm meteobridge W/m2
16:50 -11.6 °C -12.4 °C 33616.2 hPa South 15.6 km/h 31.1 km/h 91% 0 mm meteobridge W/m2
16:55 -11.7 °C -12.3 °C 33602.7 hPa SSW 17.9 km/h 20.8 km/h 92% 0 mm meteobridge W/m2
17:00 -11.7 °C -12.3 °C 33602.7 hPa SSW 17.9 km/h 36.2 km/h 92% 7.62 mm meteobridge W/m2
17:05 -11.6 °C -12.3 °C 33602.7 hPa SW 36.5 km/h 36.2 km/h 92% 7.62 mm meteobridge W/m2
17:10 -11.7 °C -12.3 °C 33592.5 hPa South 12.7 km/h 36.2 km/h 92% 7.62 mm meteobridge W/m2
17:15 -11.7 °C -12.3 °C 33592.5 hPa SSE 15.6 km/h 41.4 km/h 92% 7.62 mm meteobridge W/m2
17:20 -11.6 °C -12.3 °C 33582.3 hPa South 20.9 km/h 31.1 km/h 92% 7.62 mm meteobridge W/m2
17:25 -11.6 °C -12.3 °C 33582.3 hPa SSW 17.9 km/h 33.6 km/h 92% 7.62 mm meteobridge W/m2
17:30 -11.6 °C -12.3 °C 33582.3 hPa WSW 26.2 km/h 49.2 km/h 92% 7.62 mm meteobridge W/m2
17:35 -11.6 °C -12.3 °C 33568.8 hPa SSW 38.8 km/h 41.4 km/h 92% 7.62 mm meteobridge W/m2
17:40 -11.6 °C -12.3 °C 33568.8 hPa SW 36.5 km/h 41.4 km/h 92% 7.62 mm meteobridge W/m2
17:45 -11.6 °C -12.3 °C 33568.8 hPa South 26.2 km/h 54.4 km/h 92% 7.62 mm meteobridge W/m2
17:50 -11.5 °C -12.2 °C 33558.6 hPa South 10.3 km/h 54.4 km/h 92% 7.62 mm meteobridge W/m2
17:55 -11.5 °C -12.3 °C 33558.6 hPa SSW 20.9 km/h 51.8 km/h 91% 7.62 mm meteobridge W/m2
18:00 -11.5 °C -12.3 °C 33558.6 hPa SSW 38.8 km/h 46.7 km/h 91% 0 mm meteobridge W/m2
18:05 -11.4 °C -12.2 °C 33545.1 hPa South 7.6 km/h 41.4 km/h 91% 0 mm meteobridge W/m2
18:10 -11.5 °C -12.3 °C 33545.1 hPa South 36.5 km/h 41.4 km/h 91% 0 mm meteobridge W/m2
18:15 -11.5 °C -12.3 °C 33534.9 hPa SSW 44.1 km/h 49.2 km/h 91% 0 mm meteobridge W/m2
18:20 -11.4 °C -12.2 °C 33534.9 hPa SW 20.9 km/h 36.2 km/h 91% 0 mm meteobridge W/m2
18:25 -11.5 °C -12.3 °C 33534.9 hPa SSW 12.7 km/h 41.4 km/h 91% 0 mm meteobridge W/m2
18:30 -11.5 °C -12.3 °C 33534.9 hPa WSW 28.5 km/h 28.5 km/h 91% 0 mm meteobridge W/m2
18:35 -11.5 °C -12.3 °C 33534.9 hPa SW 7.6 km/h 31.1 km/h 91% 0 mm meteobridge W/m2
18:40 -11.5 °C -12.3 °C 33524.8 hPa SSW 20.9 km/h 44.1 km/h 91% 0 mm meteobridge W/m2
18:45 -11.5 °C -12.3 °C 33524.8 hPa South 15.6 km/h 49.2 km/h 91% 0 mm meteobridge W/m2
18:50 -11.5 °C -12.2 °C 33511.2 hPa SSE 36.5 km/h 46.7 km/h 92% 0 mm meteobridge W/m2
18:55 -11.5 °C -12.3 °C 33511.2 hPa South 26.2 km/h 59.5 km/h 91% 0 mm meteobridge W/m2
19:00 -11.5 °C -12.3 °C 33511.2 hPa SSW 15.6 km/h 46.7 km/h 91% 0 mm meteobridge W/m2
19:05 -11.6 °C -12.3 °C 33501.1 hPa South 20.9 km/h 38.8 km/h 91% 0 mm meteobridge W/m2
19:10 -11.6 °C -12.3 °C 33501.1 hPa SE 20.9 km/h 46.7 km/h 91% 0 mm meteobridge W/m2
19:15 -11.6 °C -12.3 °C 33501.1 hPa SW 23 km/h 57 km/h 91% 0 mm meteobridge W/m2
19:20 -11.6 °C -12.3 °C 33501.1 hPa South 26.2 km/h 46.7 km/h 91% 0 mm meteobridge W/m2
19:25 -11.6 °C -12.3 °C 33490.9 hPa South 12.7 km/h 44.1 km/h 91% 0 mm meteobridge W/m2
19:30 -11.6 °C -12.3 °C 33490.9 hPa SW 31.4 km/h 57 km/h 91% 0 mm meteobridge W/m2
19:35 -11.6 °C -12.3 °C 33477.4 hPa SW 26.2 km/h 38.8 km/h 91% 0 mm meteobridge W/m2
19:40 -11.6 °C -12.3 °C 33477.4 hPa WSW 26.2 km/h 25.9 km/h 91% 0 mm meteobridge W/m2
19:45 -11.6 °C -12.3 °C 33477.4 hPa SW 20.9 km/h 46.7 km/h 91% 0 mm meteobridge W/m2
19:50 -11.6 °C -12.3 °C 33467.2 hPa South 33.6 km/h 57 km/h 91% 0 mm meteobridge W/m2
19:55 -11.6 °C -12.4 °C 33467.2 hPa SW 17.9 km/h 44.1 km/h 91% 0 mm meteobridge W/m2
20:00 -11.6 °C -12.4 °C 33453.7 hPa SW 36.5 km/h 46.7 km/h 91% 0 mm meteobridge W/m2
20:05 -11.6 °C -12.4 °C 33453.7 hPa SW 15.6 km/h 33.6 km/h 91% 0 mm meteobridge W/m2
20:10 -11.6 °C -12.4 °C 33443.5 hPa South 26.2 km/h 57 km/h 91% 0 mm meteobridge W/m2
20:15 -11.7 °C -12.4 °C 33443.5 hPa SSW 26.2 km/h 36.2 km/h 91% 7.62 mm meteobridge W/m2
20:20 -11.7 °C -12.4 °C 33443.5 hPa WSW 28.5 km/h 33.6 km/h 91% 7.62 mm meteobridge W/m2
20:25 -11.7 °C -12.4 °C 33433.4 hPa SW 17.9 km/h 38.8 km/h 91% 7.62 mm meteobridge W/m2
20:30 -11.7 °C -12.4 °C 33433.4 hPa South 20.9 km/h 41.4 km/h 91% 7.62 mm meteobridge W/m2
20:35 -11.7 °C -12.4 °C 33419.8 hPa WSW 17.9 km/h 38.8 km/h 91% 7.62 mm meteobridge W/m2
20:40 -11.7 °C -12.4 °C 33419.8 hPa SSE 23 km/h 38.8 km/h 91% 7.62 mm meteobridge W/m2
20:45 -11.7 °C -12.4 °C 33409.7 hPa SW 23 km/h 41.4 km/h 91% 7.62 mm meteobridge W/m2
20:50 -11.7 °C -12.4 °C 33396.1 hPa SSE 17.9 km/h 49.2 km/h 91% 7.62 mm meteobridge W/m2
20:55 -11.7 °C -12.4 °C 33396.1 hPa SSE 23 km/h 25.9 km/h 91% 7.62 mm meteobridge W/m2
21:00 -11.7 °C -12.5 °C 33386 hPa SSW 38.8 km/h 59.5 km/h 91% 7.62 mm meteobridge W/m2
21:05 -11.7 °C -12.5 °C 33386 hPa SSE 23 km/h 57 km/h 91% 7.62 mm meteobridge W/m2
21:10 -11.7 °C -12.5 °C 33375.8 hPa SSW 17.9 km/h 51.8 km/h 91% 7.62 mm meteobridge W/m2
21:15 -11.7 °C -12.6 °C 33362.3 hPa SSW 17.9 km/h 51.8 km/h 90% 0 mm meteobridge W/m2
21:20 -11.7 °C -12.6 °C 33362.3 hPa SE 26.2 km/h 41.4 km/h 90% 0 mm meteobridge W/m2
21:25 -11.7 °C -12.6 °C 33352.1 hPa SSW 36.5 km/h 38.8 km/h 90% 0 mm meteobridge W/m2
21:30 -11.8 °C -12.7 °C 33352.1 hPa South 26.2 km/h 51.8 km/h 90% 0 mm meteobridge W/m2
21:35 -11.8 °C -12.6 °C 33352.1 hPa SW 31.4 km/h 46.7 km/h 91% 0 mm meteobridge W/m2
21:40 -11.8 °C -12.7 °C 33338.6 hPa SSE 7.6 km/h 44.1 km/h 90% 0 mm meteobridge W/m2
21:45 -11.8 °C -12.7 °C 33328.4 hPa SW 36.5 km/h 38.8 km/h 90% 0 mm meteobridge W/m2
21:50 -11.8 °C -12.7 °C 33328.4 hPa South 26.2 km/h 41.4 km/h 90% 0 mm meteobridge W/m2
21:55 -11.8 °C -12.7 °C 33318.2 hPa SW 17.9 km/h 59.5 km/h 90% 0 mm meteobridge W/m2
22:00 -11.8 °C -12.7 °C 33304.7 hPa SW 31.4 km/h 59.5 km/h 90% 0 mm meteobridge W/m2
22:05 -11.8 °C -12.7 °C 33304.7 hPa SSW 26.2 km/h 54.4 km/h 90% 0 mm meteobridge W/m2
22:11 -11.8 °C -12.7 °C 33304.7 hPa South 17.9 km/h 33.6 km/h 90% 7.62 mm meteobridge W/m2
22:15 -11.8 °C -12.7 °C 33294.5 hPa South 33.6 km/h 57 km/h 90% 7.62 mm meteobridge W/m2
22:20 -11.8 °C -12.7 °C 33294.5 hPa SSW 31.4 km/h 57 km/h 90% 7.62 mm meteobridge W/m2
22:25 -11.8 °C -12.7 °C 33284.4 hPa SSW 23 km/h 49.2 km/h 90% 7.62 mm meteobridge W/m2
22:30 -11.8 °C -12.7 °C 33284.4 hPa SSE 23 km/h 38.8 km/h 90% 12.7 mm meteobridge W/m2
22:35 -11.9 °C -12.8 °C 33270.8 hPa South 26.2 km/h 44.1 km/h 90% 12.7 mm meteobridge W/m2
22:40 -11.9 °C -12.8 °C 33270.8 hPa SSE 46.3 km/h 46.7 km/h 90% 12.7 mm meteobridge W/m2
22:45 -11.9 °C -12.8 °C 33260.7 hPa SSW 5.1 km/h 33.6 km/h 90% 12.7 mm meteobridge W/m2
22:50 -12 °C -12.9 °C 33247.1 hPa SW 7.6 km/h 41.4 km/h 90% 20.32 mm meteobridge W/m2
22:55 -12 °C -12.9 °C 33247.1 hPa SSW 17.9 km/h 31.1 km/h 90% 25.4 mm meteobridge W/m2
23:00 -11.9 °C -12.8 °C 33237 hPa South 46.3 km/h 77.7 km/h 90% 33.02 mm meteobridge W/m2
23:05 -11.9 °C -12.8 °C 33237 hPa South 31.4 km/h 46.7 km/h 90% 33.02 mm meteobridge W/m2
23:10 -11.9 °C -12.8 °C 33237 hPa SSW 46.3 km/h 57 km/h 90% 33.02 mm meteobridge W/m2
23:15 -12.7 °C -13.7 °C 33260.7 hPa WSW 17.9 km/h 57 km/h 89% 58.42 mm meteobridge W/m2
23:20 -13.3 °C -14.3 °C 33260.7 hPa WNW 17.9 km/h 54.4 km/h 89% 58.42 mm meteobridge W/m2
23:25 -13.6 °C -14.4 °C 33260.7 hPa NW 20.9 km/h 46.7 km/h 90% 63.5 mm meteobridge W/m2
23:30 -13.7 °C -14.6 °C 33270.8 hPa NW 15.6 km/h 44.1 km/h 90% 58.42 mm meteobridge W/m2
23:35 -13.8 °C -14.6 °C 33270.8 hPa WNW 26.2 km/h 36.2 km/h 90% 63.5 mm meteobridge W/m2
23:40 -13.9 °C -14.7 °C 33270.8 hPa WNW 31.4 km/h 54.4 km/h 91% 63.5 mm meteobridge W/m2
23:45 -13.9 °C -14.7 °C 33270.8 hPa WNW 36.5 km/h 36.2 km/h 91% 71.12 mm meteobridge W/m2
23:50 -14 °C -14.8 °C 33270.8 hPa WNW 26.2 km/h 41.4 km/h 91% 71.12 mm meteobridge W/m2
23:55 -14.1 °C -14.8 °C 33270.8 hPa WNW 17.9 km/h 33.6 km/h 91% 76.2 mm meteobridge W/m2